sensor_id;sensor_type;location;lat;lon;timestamp;P1;durP1;ratioP1;P2;durP2;ratioP2
3769;SDS011;1900;48.890;9.190;2022-11-15T00:37:37;6.53;;;3.97;;
3769;SDS011;1900;48.890;9.190;2022-11-15T00:40:21;6.93;;;4.40;;
3769;SDS011;1900;48.890;9.190;2022-11-15T00:43:05;6.23;;;4.30;;
3769;SDS011;1900;48.890;9.190;2022-11-15T00:45:50;9.40;;;4.30;;
3769;SDS011;1900;48.890;9.190;2022-11-15T00:48:34;7.00;;;4.70;;
3769;SDS011;1900;48.890;9.190;2022-11-15T00:51:18;10.87;;;4.80;;
3769;SDS011;1900;48.890;9.190;2022-11-15T00:54:02;6.40;;;3.83;;
3769;SDS011;1900;48.890;9.190;2022-11-15T00:56:47;6.23;;;3.60;;
3769;SDS011;1900;48.890;9.190;2022-11-15T00:59:31;6.93;;;3.97;;
3769;SDS011;1900;48.890;9.190;2022-11-15T01:02:15;5.30;;;4.03;;
3769;SDS011;1900;48.890;9.190;2022-11-15T01:04:59;11.10;;;3.77;;
3769;SDS011;1900;48.890;9.190;2022-11-15T01:07:44;7.30;;;4.03;;
3769;SDS011;1900;48.890;9.190;2022-11-15T01:10:28;6.27;;;4.30;;
3769;SDS011;1900;48.890;9.190;2022-11-15T01:13:12;7.50;;;4.00;;
3769;SDS011;1900;48.890;9.190;2022-11-15T01:15:56;4.47;;;3.53;;
3769;SDS011;1900;48.890;9.190;2022-11-15T01:18:41;5.97;;;4.50;;
3769;SDS011;1900;48.890;9.190;2022-11-15T01:21:26;6.87;;;4.13;;
3769;SDS011;1900;48.890;9.190;2022-11-15T01:24:13;8.40;;;3.80;;
3769;SDS011;1900;48.890;9.190;2022-11-15T01:26:58;6.57;;;4.07;;
3769;SDS011;1900;48.890;9.190;2022-11-15T01:29:42;8.53;;;4.57;;
3769;SDS011;1900;48.890;9.190;2022-11-15T01:32:26;5.50;;;4.30;;
3769;SDS011;1900;48.890;9.190;2022-11-15T01:35:10;6.20;;;3.77;;
3769;SDS011;1900;48.890;9.190;2022-11-15T01:37:54;5.80;;;3.80;;
3769;SDS011;1900;48.890;9.190;2022-11-15T01:40:38;6.63;;;4.00;;
3769;SDS011;1900;48.890;9.190;2022-11-15T01:43:33;5.10;;;3.60;;
3769;SDS011;1900;48.890;9.190;2022-11-15T01:49:17;7.60;;;4.20;;
3769;SDS011;1900;48.890;9.190;2022-11-15T01:52:05;7.40;;;4.57;;
3769;SDS011;1900;48.890;9.190;2022-11-15T01:58:11;5.00;;;3.30;;
3769;SDS011;1900;48.890;9.190;2022-11-15T02:00:55;7.30;;;3.40;;
3769;SDS011;1900;48.890;9.190;2022-11-15T02:03:41;4.90;;;4.20;;
3769;SDS011;1900;48.890;9.190;2022-11-15T02:06:34;5.20;;;3.60;;
3769;SDS011;1900;48.890;9.190;2022-11-15T02:09:20;7.80;;;3.60;;
3769;SDS011;1900;48.890;9.190;2022-11-15T02:12:04;5.73;;;3.13;;
3769;SDS011;1900;48.890;9.190;2022-11-15T02:14:52;3.80;;;3.00;;
3769;SDS011;1900;48.890;9.190;2022-11-15T02:26:55;3.53;;;2.77;;
3769;SDS011;1900;48.890;9.190;2022-11-15T02:36:09;4.00;;;3.03;;
3769;SDS011;1900;48.890;9.190;2022-11-15T02:42:19;5.43;;;2.83;;
3769;SDS011;1900;48.890;9.190;2022-11-15T02:45:35;4.40;;;2.93;;
3769;SDS011;1900;48.890;9.190;2022-11-15T02:48:24;3.10;;;2.63;;
3769;SDS011;1900;48.890;9.190;2022-11-15T02:51:09;5.67;;;3.13;;
3769;SDS011;1900;48.890;9.190;2022-11-15T02:53:55;6.37;;;3.00;;
3769;SDS011;1900;48.890;9.190;2022-11-15T02:56:39;5.80;;;3.10;;
3769;SDS011;1900;48.890;9.190;2022-11-15T03:11:23;6.33;;;3.60;;
3769;SDS011;1900;48.890;9.190;2022-11-15T03:14:19;6.03;;;3.20;;
3769;SDS011;1900;48.890;9.190;2022-11-15T03:17:16;3.73;;;3.17;;
3769;SDS011;1900;48.890;9.190;2022-11-15T03:20:07;5.80;;;3.53;;
3769;SDS011;1900;48.890;9.190;2022-11-15T03:22:55;5.47;;;3.40;;
3769;SDS011;1900;48.890;9.190;2022-11-15T03:25:46;5.13;;;3.33;;
3769;SDS011;1900;48.890;9.190;2022-11-15T03:28:38;5.83;;;3.67;;
3769;SDS011;1900;48.890;9.190;2022-11-15T03:31:35;7.93;;;4.53;;
3769;SDS011;1900;48.890;9.190;2022-11-15T03:34:34;6.50;;;4.23;;
3769;SDS011;1900;48.890;9.190;2022-11-15T03:37:31;10.47;;;4.00;;
3769;SDS011;1900;48.890;9.190;2022-11-15T03:40:22;7.97;;;3.83;;
3769;SDS011;1900;48.890;9.190;2022-11-15T03:43:33;7.63;;;4.10;;
3769;SDS011;1900;48.890;9.190;2022-11-15T03:46:33;7.57;;;4.53;;
3769;SDS011;1900;48.890;9.190;2022-11-15T03:49:26;7.00;;;5.07;;
3769;SDS011;1900;48.890;9.190;2022-11-15T03:52:15;11.03;;;5.53;;
3769;SDS011;1900;48.890;9.190;2022-11-15T03:55:03;8.13;;;5.63;;
3769;SDS011;1900;48.890;9.190;2022-11-15T03:57:50;6.23;;;4.60;;
3769;SDS011;1900;48.890;9.190;2022-11-15T04:00:36;9.43;;;4.77;;
3769;SDS011;1900;48.890;9.190;2022-11-15T04:03:20;12.77;;;6.07;;
3769;SDS011;1900;48.890;9.190;2022-11-15T04:06:05;6.60;;;5.27;;
3769;SDS011;1900;48.890;9.190;2022-11-15T04:08:50;12.23;;;6.10;;
3769;SDS011;1900;48.890;9.190;2022-11-15T04:11:34;12.03;;;5.57;;
3769;SDS011;1900;48.890;9.190;2022-11-15T04:14:18;10.90;;;5.40;;
3769;SDS011;1900;48.890;9.190;2022-11-15T04:17:02;11.00;;;5.73;;
3769;SDS011;1900;48.890;9.190;2022-11-15T04:19:46;13.00;;;5.67;;
3769;SDS011;1900;48.890;9.190;2022-11-15T04:23:07;9.00;;;5.87;;
3769;SDS011;1900;48.890;9.190;2022-11-15T04:26:16;13.37;;;6.37;;
3769;SDS011;1900;48.890;9.190;2022-11-15T04:29:03;8.77;;;5.73;;
3769;SDS011;1900;48.890;9.190;2022-11-15T04:32:06;8.67;;;5.67;;
3769;SDS011;1900;48.890;9.190;2022-11-15T04:34:50;9.03;;;5.53;;
3769;SDS011;1900;48.890;9.190;2022-11-15T04:37:34;9.83;;;6.07;;
3769;SDS011;1900;48.890;9.190;2022-11-15T04:40:18;10.07;;;5.70;;
3769;SDS011;1900;48.890;9.190;2022-11-15T04:43:03;11.30;;;5.60;;
3769;SDS011;1900;48.890;9.190;2022-11-15T04:45:48;9.10;;;5.90;;
3769;SDS011;1900;48.890;9.190;2022-11-15T04:48:32;6.77;;;5.40;;
3769;SDS011;1900;48.890;9.190;2022-11-15T04:51:16;7.33;;;5.63;;
3769;SDS011;1900;48.890;9.190;2022-11-15T04:54:00;8.70;;;6.10;;
3769;SDS011;1900;48.890;9.190;2022-11-15T04:56:44;8.63;;;5.60;;
3769;SDS011;1900;48.890;9.190;2022-11-15T04:59:30;9.83;;;5.17;;
3769;SDS011;1900;48.890;9.190;2022-11-15T05:02:14;7.40;;;5.80;;
3769;SDS011;1900;48.890;9.190;2022-11-15T05:04:58;10.37;;;5.33;;
3769;SDS011;1900;48.890;9.190;2022-11-15T05:07:42;8.03;;;5.93;;
3769;SDS011;1900;48.890;9.190;2022-11-15T05:10:26;7.77;;;5.27;;
3769;SDS011;1900;48.890;9.190;2022-11-15T05:13:10;10.23;;;5.03;;
3769;SDS011;1900;48.890;9.190;2022-11-15T05:15:54;10.40;;;5.97;;
3769;SDS011;1900;48.890;9.190;2022-11-15T05:18:39;7.57;;;5.33;;
3769;SDS011;1900;48.890;9.190;2022-11-15T05:21:24;8.20;;;5.03;;
3769;SDS011;1900;48.890;9.190;2022-11-15T05:24:09;6.30;;;4.90;;
3769;SDS011;1900;48.890;9.190;2022-11-15T05:26:57;5.60;;;4.40;;
3769;SDS011;1900;48.890;9.190;2022-11-15T05:29:41;8.00;;;5.33;;
3769;SDS011;1900;48.890;9.190;2022-11-15T05:32:25;8.33;;;5.10;;
3769;SDS011;1900;48.890;9.190;2022-11-15T05:38:25;6.40;;;4.60;;
3769;SDS011;1900;48.890;9.190;2022-11-15T05:41:09;10.00;;;4.80;;
3769;SDS011;1900;48.890;9.190;2022-11-15T05:43:55;11.73;;;5.43;;
3769;SDS011;1900;48.890;9.190;2022-11-15T05:46:39;9.43;;;5.63;;
3769;SDS011;1900;48.890;9.190;2022-11-15T05:49:27;7.80;;;5.67;;
3769;SDS011;1900;48.890;9.190;2022-11-15T05:52:16;8.57;;;5.07;;
3769;SDS011;1900;48.890;9.190;2022-11-15T05:55:02;6.87;;;4.47;;
3769;SDS011;1900;48.890;9.190;2022-11-15T05:57:48;11.17;;;6.10;;
3769;SDS011;1900;48.890;9.190;2022-11-15T06:00:32;11.13;;;5.77;;
3769;SDS011;1900;48.890;9.190;2022-11-15T06:03:17;9.47;;;6.17;;
3769;SDS011;1900;48.890;9.190;2022-11-15T06:06:01;13.97;;;6.60;;
3769;SDS011;1900;48.890;9.190;2022-11-15T06:08:45;8.00;;;5.70;;
3769;SDS011;1900;48.890;9.190;2022-11-15T06:11:31;12.93;;;6.57;;
3769;SDS011;1900;48.890;9.190;2022-11-15T06:14:15;15.70;;;6.50;;
3769;SDS011;1900;48.890;9.190;2022-11-15T06:16:59;9.70;;;6.33;;
3769;SDS011;1900;48.890;9.190;2022-11-15T06:19:43;18.50;;;5.80;;
3769;SDS011;1900;48.890;9.190;2022-11-15T06:22:27;11.10;;;6.20;;
3769;SDS011;1900;48.890;9.190;2022-11-15T06:25:11;7.90;;;5.60;;
3769;SDS011;1900;48.890;9.190;2022-11-15T06:27:56;10.03;;;6.33;;
3769;SDS011;1900;48.890;9.190;2022-11-15T06:30:41;10.03;;;5.50;;
3769;SDS011;1900;48.890;9.190;2022-11-15T06:33:25;11.20;;;7.23;;
3769;SDS011;1900;48.890;9.190;2022-11-15T06:36:11;7.23;;;5.53;;
3769;SDS011;1900;48.890;9.190;2022-11-15T06:38:58;8.30;;;5.70;;
3769;SDS011;1900;48.890;9.190;2022-11-15T06:41:42;12.33;;;6.40;;
3769;SDS011;1900;48.890;9.190;2022-11-15T06:44:26;17.20;;;6.50;;
3769;SDS011;1900;48.890;9.190;2022-11-15T06:47:11;11.30;;;6.43;;
3769;SDS011;1900;48.890;9.190;2022-11-15T06:49:55;16.23;;;8.37;;
3769;SDS011;1900;48.890;9.190;2022-11-15T06:52:39;11.40;;;7.23;;
3769;SDS011;1900;48.890;9.190;2022-11-15T06:55:23;12.30;;;6.47;;
3769;SDS011;1900;48.890;9.190;2022-11-15T06:58:07;14.27;;;7.80;;
3769;SDS011;1900;48.890;9.190;2022-11-15T07:00:51;12.10;;;7.03;;
3769;SDS011;1900;48.890;9.190;2022-11-15T07:03:36;16.60;;;7.80;;
3769;SDS011;1900;48.890;9.190;2022-11-15T07:06:21;9.33;;;5.90;;
3769;SDS011;1900;48.890;9.190;2022-11-15T07:09:05;17.93;;;9.57;;
3769;SDS011;1900;48.890;9.190;2022-11-15T07:11:50;10.40;;;6.37;;
3769;SDS011;1900;48.890;9.190;2022-11-15T07:14:34;6.77;;;5.20;;
3769;SDS011;1900;48.890;9.190;2022-11-15T07:17:18;15.53;;;5.60;;
3769;SDS011;1900;48.890;9.190;2022-11-15T07:20:02;11.97;;;6.37;;
3769;SDS011;1900;48.890;9.190;2022-11-15T07:22:47;10.60;;;5.37;;
3769;SDS011;1900;48.890;9.190;2022-11-15T07:25:31;11.70;;;6.10;;
3769;SDS011;1900;48.890;9.190;2022-11-15T07:28:15;9.43;;;6.13;;
3769;SDS011;1900;48.890;9.190;2022-11-15T07:31:03;14.40;;;7.10;;
3769;SDS011;1900;48.890;9.190;2022-11-15T07:33:49;9.03;;;5.77;;
3769;SDS011;1900;48.890;9.190;2022-11-15T07:36:33;11.03;;;6.57;;
3769;SDS011;1900;48.890;9.190;2022-11-15T07:39:17;17.00;;;6.70;;
3769;SDS011;1900;48.890;9.190;2022-11-15T07:42:01;10.53;;;6.07;;
3769;SDS011;1900;48.890;9.190;2022-11-15T07:45:04;12.13;;;6.27;;
3769;SDS011;1900;48.890;9.190;2022-11-15T07:47:48;14.53;;;5.70;;
3769;SDS011;1900;48.890;9.190;2022-11-15T07:50:33;14.37;;;5.47;;
3769;SDS011;1900;48.890;9.190;2022-11-15T07:53:18;10.47;;;5.00;;
3769;SDS011;1900;48.890;9.190;2022-11-15T07:56:02;24.70;;;7.70;;
3769;SDS011;1900;48.890;9.190;2022-11-15T07:58:50;14.50;;;6.63;;
3769;SDS011;1900;48.890;9.190;2022-11-15T08:01:34;10.07;;;5.20;;
3769;SDS011;1900;48.890;9.190;2022-11-15T08:04:18;14.47;;;5.30;;
3769;SDS011;1900;48.890;9.190;2022-11-15T08:07:02;8.70;;;4.80;;
3769;SDS011;1900;48.890;9.190;2022-11-15T08:09:46;9.17;;;5.23;;
3769;SDS011;1900;48.890;9.190;2022-11-15T08:12:30;8.77;;;5.13;;
3769;SDS011;1900;48.890;9.190;2022-11-15T08:15:15;8.97;;;4.53;;
3769;SDS011;1900;48.890;9.190;2022-11-15T08:18:00;6.77;;;4.63;;
3769;SDS011;1900;48.890;9.190;2022-11-15T08:20:47;7.83;;;4.43;;
3769;SDS011;1900;48.890;9.190;2022-11-15T08:23:31;8.60;;;5.47;;
3769;SDS011;1900;48.890;9.190;2022-11-15T08:26:15;11.53;;;5.43;;
3769;SDS011;1900;48.890;9.190;2022-11-15T08:29:00;12.07;;;5.90;;
3769;SDS011;1900;48.890;9.190;2022-11-15T08:31:44;10.87;;;5.67;;
3769;SDS011;1900;48.890;9.190;2022-11-15T08:34:29;12.37;;;6.17;;
3769;SDS011;1900;48.890;9.190;2022-11-15T08:37:13;12.67;;;6.40;;
3769;SDS011;1900;48.890;9.190;2022-11-15T08:39:57;11.50;;;5.63;;
3769;SDS011;1900;48.890;9.190;2022-11-15T08:42:41;7.90;;;5.10;;
3769;SDS011;1900;48.890;9.190;2022-11-15T08:45:25;9.10;;;6.03;;
3769;SDS011;1900;48.890;9.190;2022-11-15T08:48:09;12.47;;;5.63;;
3769;SDS011;1900;48.890;9.190;2022-11-15T08:50:54;8.60;;;4.77;;
3769;SDS011;1900;48.890;9.190;2022-11-15T08:53:39;9.60;;;4.43;;
3769;SDS011;1900;48.890;9.190;2022-11-15T08:56:24;7.93;;;5.60;;
3769;SDS011;1900;48.890;9.190;2022-11-15T08:59:08;10.70;;;6.13;;
3769;SDS011;1900;48.890;9.190;2022-11-15T09:01:52;10.77;;;5.40;;
3769;SDS011;1900;48.890;9.190;2022-11-15T09:04:36;10.73;;;5.87;;
3769;SDS011;1900;48.890;9.190;2022-11-15T09:07:20;10.53;;;5.57;;
3769;SDS011;1900;48.890;9.190;2022-11-15T09:10:04;8.23;;;6.60;;
3769;SDS011;1900;48.890;9.190;2022-11-15T09:12:48;5.83;;;4.47;;
3769;SDS011;1900;48.890;9.190;2022-11-15T09:15:33;10.70;;;5.57;;
3769;SDS011;1900;48.890;9.190;2022-11-15T09:18:18;5.07;;;4.20;;
3769;SDS011;1900;48.890;9.190;2022-11-15T09:21:03;5.77;;;4.30;;
3769;SDS011;1900;48.890;9.190;2022-11-15T09:23:51;10.57;;;4.63;;
3769;SDS011;1900;48.890;9.190;2022-11-15T09:26:35;6.77;;;4.37;;
3769;SDS011;1900;48.890;9.190;2022-11-15T09:29:19;8.50;;;4.87;;
3769;SDS011;1900;48.890;9.190;2022-11-15T09:32:04;10.23;;;5.17;;
3769;SDS011;1900;48.890;9.190;2022-11-15T09:34:51;7.57;;;4.40;;
3769;SDS011;1900;48.890;9.190;2022-11-15T09:37:35;6.53;;;4.07;;
3769;SDS011;1900;48.890;9.190;2022-11-15T09:40:19;11.30;;;4.57;;
3769;SDS011;1900;48.890;9.190;2022-11-15T09:46:03;6.30;;;4.77;;
3769;SDS011;1900;48.890;9.190;2022-11-15T09:48:58;9.70;;;4.87;;
3769;SDS011;1900;48.890;9.190;2022-11-15T09:51:47;11.93;;;5.27;;
3769;SDS011;1900;48.890;9.190;2022-11-15T09:57:02;5.60;;;4.00;;
3769;SDS011;1900;48.890;9.190;2022-11-15T09:59:46;13.20;;;4.57;;
3769;SDS011;1900;48.890;9.190;2022-11-15T10:02:43;7.10;;;4.30;;
3769;SDS011;1900;48.890;9.190;2022-11-15T10:05:30;10.60;;;5.20;;
3769;SDS011;1900;48.890;9.190;2022-11-15T10:08:09;6.63;;;4.30;;
3769;SDS011;1900;48.890;9.190;2022-11-15T10:10:44;5.63;;;3.80;;
3769;SDS011;1900;48.890;9.190;2022-11-15T10:13:55;9.40;;;5.00;;
3769;SDS011;1900;48.890;9.190;2022-11-15T10:24:23;6.17;;;3.13;;
3769;SDS011;1900;48.890;9.190;2022-11-15T10:26:53;8.50;;;3.90;;
3769;SDS011;1900;48.890;9.190;2022-11-15T10:29:20;7.07;;;3.27;;
3769;SDS011;1900;48.890;9.190;2022-11-15T10:31:47;12.30;;;3.77;;
3769;SDS011;1900;48.890;9.190;2022-11-15T10:34:15;6.50;;;4.00;;
3769;SDS011;1900;48.890;9.190;2022-11-15T10:36:55;6.80;;;4.57;;
3769;SDS011;1900;48.890;9.190;2022-11-15T10:39:23;4.97;;;3.23;;
3769;SDS011;1900;48.890;9.190;2022-11-15T10:41:49;6.23;;;3.53;;
3769;SDS011;1900;48.890;9.190;2022-11-15T10:44:25;9.57;;;3.53;;
3769;SDS011;1900;48.890;9.190;2022-11-15T10:54:37;6.27;;;4.00;;
3769;SDS011;1900;48.890;9.190;2022-11-15T10:57:13;6.23;;;3.77;;
3769;SDS011;1900;48.890;9.190;2022-11-15T10:59:48;6.07;;;3.80;;
3769;SDS011;1900;48.890;9.190;2022-11-15T11:05:26;9.03;;;3.77;;
3769;SDS011;1900;48.890;9.190;2022-11-15T11:07:57;8.17;;;3.60;;
3769;SDS011;1900;48.890;9.190;2022-11-15T11:10:25;7.70;;;4.60;;
3769;SDS011;1900;48.890;9.190;2022-11-15T11:12:51;7.40;;;3.43;;
3769;SDS011;1900;48.890;9.190;2022-11-15T11:15:16;7.03;;;3.83;;
3769;SDS011;1900;48.890;9.190;2022-11-15T11:20:44;8.80;;;4.70;;
3769;SDS011;1900;48.890;9.190;2022-11-15T11:26:11;8.00;;;3.80;;
3769;SDS011;1900;48.890;9.190;2022-11-15T11:28:54;6.57;;;3.90;;
3769;SDS011;1900;48.890;9.190;2022-11-15T11:43:21;8.20;;;5.00;;
3769;SDS011;1900;48.890;9.190;2022-11-15T11:51:04;6.67;;;4.17;;
3769;SDS011;1900;48.890;9.190;2022-11-15T11:53:41;10.80;;;4.80;;
3769;SDS011;1900;48.890;9.190;2022-11-15T11:56:33;6.00;;;3.60;;
3769;SDS011;1900;48.890;9.190;2022-11-15T12:01:55;8.37;;;4.33;;
3769;SDS011;1900;48.890;9.190;2022-11-15T12:04:38;6.27;;;4.20;;
3769;SDS011;1900;48.890;9.190;2022-11-15T12:07:12;4.50;;;3.40;;
3769;SDS011;1900;48.890;9.190;2022-11-15T12:09:43;5.83;;;3.90;;
3769;SDS011;1900;48.890;9.190;2022-11-15T12:12:38;12.30;;;3.80;;
3769;SDS011;1900;48.890;9.190;2022-11-15T12:17:33;6.93;;;3.70;;
3769;SDS011;1900;48.890;9.190;2022-11-15T12:20:05;8.33;;;3.60;;
3769;SDS011;1900;48.890;9.190;2022-11-15T12:23:04;8.17;;;4.63;;
3769;SDS011;1900;48.890;9.190;2022-11-15T12:30:25;3.80;;;3.37;;
3769;SDS011;1900;48.890;9.190;2022-11-15T12:33:02;8.23;;;3.67;;
3769;SDS011;1900;48.890;9.190;2022-11-15T12:35:35;6.63;;;3.63;;
3769;SDS011;1900;48.890;9.190;2022-11-15T12:38:03;9.97;;;5.60;;
3769;SDS011;1900;48.890;9.190;2022-11-15T12:40:34;5.80;;;4.07;;
3769;SDS011;1900;48.890;9.190;2022-11-15T12:45:41;5.73;;;3.20;;
3769;SDS011;1900;48.890;9.190;2022-11-15T12:48:44;5.80;;;3.73;;
3769;SDS011;1900;48.890;9.190;2022-11-15T12:51:00;7.30;;;3.80;;
3769;SDS011;1900;48.890;9.190;2022-11-15T12:53:32;10.40;;;4.37;;
3769;SDS011;1900;48.890;9.190;2022-11-15T12:58:39;7.53;;;4.10;;
3769;SDS011;1900;48.890;9.190;2022-11-15T13:09:49;5.77;;;3.80;;
3769;SDS011;1900;48.890;9.190;2022-11-15T13:11:55;9.43;;;4.00;;
3769;SDS011;1900;48.890;9.190;2022-11-15T13:22:24;9.87;;;4.60;;
3769;SDS011;1900;48.890;9.190;2022-11-15T13:25:16;12.90;;;4.17;;
3769;SDS011;1900;48.890;9.190;2022-11-15T13:27:48;7.63;;;3.83;;
3769;SDS011;1900;48.890;9.190;2022-11-15T13:30:18;10.17;;;3.67;;
3769;SDS011;1900;48.890;9.190;2022-11-15T13:32:46;14.10;;;4.20;;
3769;SDS011;1900;48.890;9.190;2022-11-15T13:35:20;6.33;;;3.60;;
3769;SDS011;1900;48.890;9.190;2022-11-15T13:37:51;6.37;;;3.20;;
3769;SDS011;1900;48.890;9.190;2022-11-15T13:40:21;7.37;;;3.80;;
3769;SDS011;1900;48.890;9.190;2022-11-15T13:42:52;7.90;;;3.60;;
3769;SDS011;1900;48.890;9.190;2022-11-15T13:45:19;14.33;;;4.10;;
3769;SDS011;1900;48.890;9.190;2022-11-15T13:47:50;4.63;;;3.20;;
3769;SDS011;1900;48.890;9.190;2022-11-15T13:50:18;5.87;;;3.23;;
3769;SDS011;1900;48.890;9.190;2022-11-15T13:52:48;5.83;;;3.50;;
3769;SDS011;1900;48.890;9.190;2022-11-15T13:55:18;5.13;;;3.37;;
3769;SDS011;1900;48.890;9.190;2022-11-15T14:06:15;6.07;;;3.57;;
3769;SDS011;1900;48.890;9.190;2022-11-15T14:11:24;6.30;;;3.20;;
3769;SDS011;1900;48.890;9.190;2022-11-15T14:16:35;6.60;;;4.40;;
3769;SDS011;1900;48.890;9.190;2022-11-15T14:19:03;7.23;;;3.70;;
3769;SDS011;1900;48.890;9.190;2022-11-15T14:21:30;3.37;;;2.70;;
3769;SDS011;1900;48.890;9.190;2022-11-15T14:24:30;7.43;;;3.50;;
3769;SDS011;1900;48.890;9.190;2022-11-15T14:26:54;10.03;;;4.20;;
3769;SDS011;1900;48.890;9.190;2022-11-15T14:31:52;5.27;;;3.07;;
3769;SDS011;1900;48.890;9.190;2022-11-15T14:34:18;5.63;;;3.57;;
3769;SDS011;1900;48.890;9.190;2022-11-15T14:36:47;7.20;;;4.00;;
3769;SDS011;1900;48.890;9.190;2022-11-15T14:39:13;5.73;;;4.20;;
3769;SDS011;1900;48.890;9.190;2022-11-15T14:41:38;10.00;;;5.20;;
3769;SDS011;1900;48.890;9.190;2022-11-15T14:44:04;7.80;;;4.20;;
3769;SDS011;1900;48.890;9.190;2022-11-15T14:46:31;7.80;;;4.03;;
3769;SDS011;1900;48.890;9.190;2022-11-15T14:48:57;11.03;;;4.70;;
3769;SDS011;1900;48.890;9.190;2022-11-15T14:51:22;9.50;;;4.87;;
3769;SDS011;1900;48.890;9.190;2022-11-15T14:53:48;8.40;;;3.80;;
3769;SDS011;1900;48.890;9.190;2022-11-15T14:56:14;7.33;;;4.37;;
3769;SDS011;1900;48.890;9.190;2022-11-15T14:58:41;6.80;;;4.30;;
3769;SDS011;1900;48.890;9.190;2022-11-15T15:03:42;7.87;;;4.70;;
3769;SDS011;1900;48.890;9.190;2022-11-15T15:06:09;7.67;;;4.20;;
3769;SDS011;1900;48.890;9.190;2022-11-15T15:08:35;6.10;;;3.90;;
3769;SDS011;1900;48.890;9.190;2022-11-15T15:11:00;9.10;;;4.03;;
3769;SDS011;1900;48.890;9.190;2022-11-15T15:13:26;7.73;;;3.67;;
3769;SDS011;1900;48.890;9.190;2022-11-15T15:15:53;6.80;;;4.50;;
3769;SDS011;1900;48.890;9.190;2022-11-15T15:18:19;8.77;;;4.47;;
3769;SDS011;1900;48.890;9.190;2022-11-15T15:20:45;10.70;;;4.63;;
3769;SDS011;1900;48.890;9.190;2022-11-15T15:23:32;7.30;;;4.87;;
3769;SDS011;1900;48.890;9.190;2022-11-15T15:25:58;7.23;;;4.70;;
3769;SDS011;1900;48.890;9.190;2022-11-15T15:28:24;12.47;;;4.77;;
3769;SDS011;1900;48.890;9.190;2022-11-15T15:30:50;8.43;;;4.47;;
3769;SDS011;1900;48.890;9.190;2022-11-15T15:33:16;11.03;;;4.87;;
3769;SDS011;1900;48.890;9.190;2022-11-15T15:35:42;7.83;;;4.23;;
3769;SDS011;1900;48.890;9.190;2022-11-15T15:38:10;9.10;;;5.00;;
3769;SDS011;1900;48.890;9.190;2022-11-15T15:40:37;7.83;;;4.90;;
3769;SDS011;1900;48.890;9.190;2022-11-15T15:43:02;9.53;;;5.60;;
3769;SDS011;1900;48.890;9.190;2022-11-15T15:45:28;7.97;;;4.87;;
3769;SDS011;1900;48.890;9.190;2022-11-15T15:47:55;8.27;;;5.43;;
3769;SDS011;1900;48.890;9.190;2022-11-15T15:50:25;9.63;;;5.40;;
3769;SDS011;1900;48.890;9.190;2022-11-15T15:52:53;9.20;;;6.27;;
3769;SDS011;1900;48.890;9.190;2022-11-15T15:55:23;10.90;;;6.97;;
3769;SDS011;1900;48.890;9.190;2022-11-15T15:57:49;17.63;;;7.23;;
3769;SDS011;1900;48.890;9.190;2022-11-15T16:00:15;11.03;;;6.60;;
3769;SDS011;1900;48.890;9.190;2022-11-15T16:02:42;12.53;;;6.90;;
3769;SDS011;1900;48.890;9.190;2022-11-15T16:05:08;11.37;;;7.27;;
3769;SDS011;1900;48.890;9.190;2022-11-15T16:07:34;15.83;;;6.90;;
3769;SDS011;1900;48.890;9.190;2022-11-15T16:10:01;13.37;;;6.17;;
3769;SDS011;1900;48.890;9.190;2022-11-15T16:12:54;13.77;;;7.27;;
3769;SDS011;1900;48.890;9.190;2022-11-15T16:15:21;13.17;;;6.23;;
3769;SDS011;1900;48.890;9.190;2022-11-15T16:17:50;14.07;;;7.80;;
3769;SDS011;1900;48.890;9.190;2022-11-15T16:23:11;14.10;;;8.07;;
3769;SDS011;1900;48.890;9.190;2022-11-15T16:25:40;11.93;;;7.80;;
3769;SDS011;1900;48.890;9.190;2022-11-15T16:28:19;11.33;;;6.60;;
3769;SDS011;1900;48.890;9.190;2022-11-15T16:33:29;15.30;;;7.03;;
3769;SDS011;1900;48.890;9.190;2022-11-15T16:35:54;10.73;;;7.07;;
3769;SDS011;1900;48.890;9.190;2022-11-15T16:38:20;11.60;;;7.10;;
3769;SDS011;1900;48.890;9.190;2022-11-15T16:40:46;10.30;;;6.53;;
3769;SDS011;1900;48.890;9.190;2022-11-15T16:43:12;13.03;;;7.80;;
3769;SDS011;1900;48.890;9.190;2022-11-15T16:45:38;10.00;;;6.20;;
3769;SDS011;1900;48.890;9.190;2022-11-15T16:48:04;10.60;;;6.90;;
3769;SDS011;1900;48.890;9.190;2022-11-15T16:50:31;10.30;;;7.30;;
3769;SDS011;1900;48.890;9.190;2022-11-15T16:53:03;15.97;;;7.40;;
3769;SDS011;1900;48.890;9.190;2022-11-15T16:55:29;16.00;;;7.83;;
3769;SDS011;1900;48.890;9.190;2022-11-15T16:57:55;9.23;;;7.33;;
3769;SDS011;1900;48.890;9.190;2022-11-15T17:00:26;13.47;;;7.07;;
3769;SDS011;1900;48.890;9.190;2022-11-15T17:02:51;9.67;;;6.20;;
3769;SDS011;1900;48.890;9.190;2022-11-15T17:05:20;9.93;;;6.90;;
3769;SDS011;1900;48.890;9.190;2022-11-15T17:07:47;9.20;;;6.50;;
3769;SDS011;1900;48.890;9.190;2022-11-15T17:10:16;11.83;;;7.00;;
3769;SDS011;1900;48.890;9.190;2022-11-15T17:12:42;19.80;;;7.50;;
3769;SDS011;1900;48.890;9.190;2022-11-15T17:15:08;11.40;;;6.70;;
3769;SDS011;1900;48.890;9.190;2022-11-15T17:17:36;13.23;;;6.33;;
3769;SDS011;1900;48.890;9.190;2022-11-15T17:20:02;13.30;;;7.33;;
3769;SDS011;1900;48.890;9.190;2022-11-15T17:22:29;11.17;;;6.70;;
3769;SDS011;1900;48.890;9.190;2022-11-15T17:24:55;12.00;;;6.60;;
3769;SDS011;1900;48.890;9.190;2022-11-15T17:27:21;17.43;;;8.03;;
3769;SDS011;1900;48.890;9.190;2022-11-15T17:29:47;11.87;;;6.50;;
3769;SDS011;1900;48.890;9.190;2022-11-15T17:32:13;14.53;;;7.67;;
3769;SDS011;1900;48.890;9.190;2022-11-15T17:34:39;18.87;;;11.63;;
3769;SDS011;1900;48.890;9.190;2022-11-15T17:37:04;33.73;;;16.97;;
3769;SDS011;1900;48.890;9.190;2022-11-15T17:39:30;31.93;;;19.07;;
3769;SDS011;1900;48.890;9.190;2022-11-15T17:41:56;41.17;;;22.03;;
3769;SDS011;1900;48.890;9.190;2022-11-15T17:44:21;31.60;;;19.60;;
3769;SDS011;1900;48.890;9.190;2022-11-15T17:46:47;19.07;;;12.33;;
3769;SDS011;1900;48.890;9.190;2022-11-15T17:49:13;20.33;;;9.97;;
3769;SDS011;1900;48.890;9.190;2022-11-15T17:51:38;21.03;;;13.50;;
3769;SDS011;1900;48.890;9.190;2022-11-15T17:54:04;32.20;;;14.67;;
3769;SDS011;1900;48.890;9.190;2022-11-15T17:56:30;24.00;;;14.27;;
3769;SDS011;1900;48.890;9.190;2022-11-15T17:58:56;18.43;;;13.20;;
3769;SDS011;1900;48.890;9.190;2022-11-15T18:01:27;21.73;;;13.93;;
3769;SDS011;1900;48.890;9.190;2022-11-15T18:03:57;20.47;;;12.00;;
3769;SDS011;1900;48.890;9.190;2022-11-15T18:06:25;17.23;;;11.97;;
3769;SDS011;1900;48.890;9.190;2022-11-15T18:08:52;16.90;;;9.20;;
3769;SDS011;1900;48.890;9.190;2022-11-15T18:13:48;19.43;;;8.63;;
3769;SDS011;1900;48.890;9.190;2022-11-15T18:16:20;17.40;;;8.27;;
3769;SDS011;1900;48.890;9.190;2022-11-15T18:18:50;10.10;;;7.37;;
3769;SDS011;1900;48.890;9.190;2022-11-15T18:21:17;18.07;;;11.53;;
3769;SDS011;1900;48.890;9.190;2022-11-15T18:23:46;23.07;;;10.80;;
3769;SDS011;1900;48.890;9.190;2022-11-15T18:26:14;17.63;;;12.07;;
3769;SDS011;1900;48.890;9.190;2022-11-15T18:28:45;22.60;;;11.93;;
3769;SDS011;1900;48.890;9.190;2022-11-15T18:31:14;15.50;;;8.93;;
3769;SDS011;1900;48.890;9.190;2022-11-15T18:33:41;23.50;;;10.10;;
3769;SDS011;1900;48.890;9.190;2022-11-15T18:36:08;22.43;;;11.47;;
3769;SDS011;1900;48.890;9.190;2022-11-15T18:38:37;20.13;;;10.60;;
3769;SDS011;1900;48.890;9.190;2022-11-15T18:43:38;13.20;;;8.37;;
3769;SDS011;1900;48.890;9.190;2022-11-15T18:46:08;24.80;;;13.20;;
3769;SDS011;1900;48.890;9.190;2022-11-15T18:48:40;43.77;;;24.10;;
3769;SDS011;1900;48.890;9.190;2022-11-15T18:51:11;20.17;;;11.20;;
3769;SDS011;1900;48.890;9.190;2022-11-15T18:53:39;12.87;;;8.07;;
3769;SDS011;1900;48.890;9.190;2022-11-15T18:56:07;14.50;;;8.80;;
3769;SDS011;1900;48.890;9.190;2022-11-15T18:58:34;11.13;;;7.37;;
3769;SDS011;1900;48.890;9.190;2022-11-15T19:01:05;15.33;;;9.03;;
3769;SDS011;1900;48.890;9.190;2022-11-15T19:03:34;26.83;;;15.20;;
3769;SDS011;1900;48.890;9.190;2022-11-15T19:06:04;47.20;;;28.67;;
3769;SDS011;1900;48.890;9.190;2022-11-15T19:08:38;24.73;;;12.83;;
3769;SDS011;1900;48.890;9.190;2022-11-15T19:11:10;15.73;;;9.13;;
3769;SDS011;1900;48.890;9.190;2022-11-15T19:13:37;21.23;;;12.40;;
3769;SDS011;1900;48.890;9.190;2022-11-15T19:16:04;18.63;;;10.90;;
3769;SDS011;1900;48.890;9.190;2022-11-15T19:18:31;20.37;;;12.13;;
3769;SDS011;1900;48.890;9.190;2022-11-15T19:21:05;35.33;;;18.97;;